Map

Track Data

SID SEASON NUMBER BASIN SUBBASIN NAME ISO_TIME NATURE LAT LON WMO_WIND WMO_PRES WMO_AGENCY TRACK_TYPE DIST2LAND LANDFALL IFLAG USA_AGENCY USA_ATCF_ID USA_LAT USA_LON USA_RECORD USA_STATUS USA_WIND USA_PRES USA_SSHS USA_R34_NE USA_R34_SE USA_R34_SW USA_R34_NW USA_R50_NE USA_R50_SE USA_R50_SW USA_R50_NW USA_R64_NE USA_R64_SE USA_R64_SW USA_R64_NW USA_POCI USA_ROCI USA_RMW USA_EYE TOKYO_LAT TOKYO_LON TOKYO_GRADE TOKYO_WIND TOKYO_PRES TOKYO_R50_DIR TOKYO_R50_LONG TOKYO_R50_SHORT TOKYO_R30_DIR TOKYO_R30_LONG TOKYO_R30_SHORT TOKYO_LAND CMA_LAT CMA_LON CMA_CAT CMA_WIND CMA_PRES HKO_LAT HKO_LON HKO_CAT HKO_WIND HKO_PRES NEWDELHI_LAT NEWDELHI_LON NEWDELHI_GRADE NEWDELHI_WIND NEWDELHI_PRES NEWDELHI_CI NEWDELHI_DP NEWDELHI_POCI REUNION_LAT REUNION_LON REUNION_TYPE REUNION_WIND REUNION_PRES REUNION_TNUM REUNION_CI REUNION_RMW REUNION_R34_NE REUNION_R34_SE REUNION_R34_SW REUNION_R34_NW REUNION_R50_NE REUNION_R50_SE REUNION_R50_SW REUNION_R50_NW REUNION_R64_NE REUNION_R64_SE REUNION_R64_SW REUNION_R64_NW BOM_LAT BOM_LON BOM_TYPE BOM_WIND BOM_PRES BOM_TNUM BOM_CI BOM_RMW BOM_R34_NE BOM_R34_SE BOM_R34_SW BOM_R34_NW BOM_R50_NE BOM_R50_SE BOM_R50_SW BOM_R50_NW BOM_R64_NE BOM_R64_SE BOM_R64_SW BOM_R64_NW BOM_ROCI BOM_POCI BOM_EYE BOM_POS_METHOD BOM_PRES_METHOD NADI_LAT NADI_LON NADI_CAT NADI_WIND NADI_PRES WELLINGTON_LAT WELLINGTON_LON WELLINGTON_WIND WELLINGTON_PRES DS824_LAT DS824_LON DS824_STAGE DS824_WIND DS824_PRES TD9636_LAT TD9636_LON TD9636_STAGE TD9636_WIND TD9636_PRES TD9635_LAT TD9635_LON TD9635_WIND TD9635_PRES TD9635_ROCI NEUMANN_LAT NEUMANN_LON NEUMANN_CLASS NEUMANN_WIND NEUMANN_PRES MLC_LAT MLC_LON MLC_CLASS MLC_WIND MLC_PRES USA_GUST BOM_GUST BOM_GUST_PER REUNION_GUST REUNION_GUST_PER USA_SEAHGT USA_SEARAD_NE USA_SEARAD_SE USA_SEARAD_SW USA_SEARAD_NW STORM_SPEED STORM_DIR
1887271N16133 1887 53 WP MM NOT_NAMED 1887-09-27 16:00:00 NR 16.0000 132.700 main 885 876 __________O___ -1 16.0000 132.700 7 3 304
1887271N16133 1887 53 WP MM NOT_NAMED 1887-09-27 18:00:00 NR 16.0536 132.614 main 881 872 __________P___ -1 16.0536 132.614 7 3 302
1887271N16133 1887 53 WP MM NOT_NAMED 1887-09-27 21:00:00 NR 16.1389 132.473 main 872 859 __________P___ -1 16.1389 132.473 7 4 302
1887271N16133 1887 53 WP MM NOT_NAMED 1887-09-28 00:00:00 NR 16.2369 132.302 main 859 846 __________P___ -1 16.2369 132.302 7 4 300
1887271N16133 1887 53 WP MM NOT_NAMED 1887-09-28 03:00:00 NR 16.3549 132.086 main 852 843 __________P___ -1 16.3549 132.086 7 5 299
1887271N16133 1887 53 WP MM NOT_NAMED 1887-09-28 04:00:00 NR 16.4000 132.000 main 843 832 __________O___ -1 16.4000 132.000 7 6 299
1887271N16133 1887 53 WP MM NOT_NAMED 1887-09-28 06:00:00 NR 16.5001 131.807 main 832 812 __________P___ -1 16.5001 131.807 7 7 299
1887271N16133 1887 53 WP MM NOT_NAMED 1887-09-28 09:00:00 NR 16.6752 131.472 main 819 793 __________P___ -1 16.6752 131.472 7 8 299
1887271N16133 1887 53 WP MM NOT_NAMED 1887-09-28 12:00:00 NR 16.8802 131.105 main 793 764 __________P___ -1 16.8802 131.105 7 8 302
1887271N16133 1887 53 WP MM NOT_NAMED 1887-09-28 15:00:00 NR 17.1150 130.725 main 764 760 __________P___ -1 17.1150 130.725 7 9 304
1887271N16133 1887 53 WP MM NOT_NAMED 1887-09-28 16:00:00 NR 17.2000 130.600 main 760 746 __________O___ -1 17.2000 130.600 7 9 307
1887271N16133 1887 53 WP MM NOT_NAMED 1887-09-28 18:00:00 NR 17.3824 130.351 main 752 728 __________P___ -1 17.3824 130.351 7 9 309
1887271N16133 1887 53 WP MM NOT_NAMED 1887-09-28 21:00:00 NR 17.6815 129.977 main 734 720 __________P___ -1 17.6815 129.977 7 9 311
1887271N16133 1887 53 WP MM NOT_NAMED 1887-09-29 00:00:00 NR 17.9942 129.620 main 720 718 __________P___ -1 17.9942 129.620 7 9 314
1887271N16133 1887 53 WP MM NOT_NAMED 1887-09-29 03:00:00 NR 18.3018 129.297 main 718 718 __________P___ -1 18.3018 129.297 7 9 316
1887271N16133 1887 53 WP MM NOT_NAMED 1887-09-29 04:00:00 NR 18.4000 129.200 main 718 706 __________O___ -1 18.4000 129.200 7 7 317
1887271N16133 1887 53 WP MM NOT_NAMED 1887-09-29 06:00:00 NR 18.5726 129.032 main 706 686 __________P___ -1 18.5726 129.032 7 7 319
1887271N16133 1887 53 WP MM NOT_NAMED 1887-09-29 09:00:00 NR 18.8189 128.818 main 686 666 __________P___ -1 18.8189 128.818 7 6 322
1887271N16133 1887 53 WP MM NOT_NAMED 1887-09-29 12:00:00 NR 19.0614 128.633 main 667 658 __________P___ -1 19.0614 128.633 7 6 325
1887271N16133 1887 53 WP MM NOT_NAMED 1887-09-29 15:00:00 NR 19.3123 128.459 main 660 649 __________P___ -1 19.3123 128.459 7 6 327
1887271N16133 1887 53 WP MM NOT_NAMED 1887-09-29 16:00:00 NR 19.4000 128.400 main 651 642 __________O___ -1 19.4000 128.400 7 5 325
1887271N16133 1887 53 WP MM NOT_NAMED 1887-09-29 18:00:00 NR 19.5305 128.299 main 642 626 __________P___ -1 19.5305 128.299 7 5 325
1887271N16133 1887 53 WP MM NOT_NAMED 1887-09-29 21:00:00 NR 19.7377 128.149 main 626 621 __________P___ -1 19.7377 128.149 7 6 327
1887271N16133 1887 53 WP MM NOT_NAMED 1887-09-30 00:00:00 NR 20.0144 127.965 main 624 608 __________P___ -1 20.0144 127.965 7 8 329
1887271N16133 1887 53 WP MM NOT_NAMED 1887-09-30 03:00:00 NR 20.4234 127.709 main 608 603 __________P___ -1 20.4234 127.709 7 10 330
1887271N16133 1887 53 WP MM NOT_NAMED 1887-09-30 04:00:00 NR 20.6000 127.600 main 607 589 __________O___ -1 20.6000 127.600 7 16 321
1887271N16133 1887 53 WP MM NOT_NAMED 1887-09-30 06:00:00 NR 21.0604 127.160 main 595 530 __________P___ -1 21.0604 127.160 7 20 319
1887271N16133 1887 53 WP MM NOT_NAMED 1887-09-30 09:00:00 NR 21.8885 126.412 main 530 440 __________P___ -1 21.8885 126.412 7 22 323
1887271N16133 1887 53 WP MM NOT_NAMED 1887-09-30 12:00:00 NR 22.8013 125.768 main 440 375 __________P___ -1 22.8013 125.768 7 20 335
1887271N16133 1887 53 WP MM NOT_NAMED 1887-09-30 15:00:00 NR 23.7118 125.476 main 375 369 __________P___ -1 23.7118 125.476 7 18 348
1887271N16133 1887 53 WP MM NOT_NAMED 1887-09-30 16:00:00 NR 24.0000 125.500 main 369 367 __________O___ -1 24.0000 125.500 7 17 18
1887271N16133 1887 53 WP MM NOT_NAMED 1887-09-30 18:00:00 NR 24.5398 125.767 main 387 385 __________P___ -1 24.5398 125.767 7 20 39
1887271N16133 1887 53 WP MM NOT_NAMED 1887-09-30 21:00:00 NR 25.2679 126.638 main 463 473 __________P___ -1 25.2679 126.638 7 24 55
1887271N16133 1887 53 WP MM NOT_NAMED 1887-10-01 00:00:00 NR 25.9174 127.927 main 600 515 __________P___ -1 25.9174 127.927 7 28 64
1887271N16133 1887 53 WP MM NOT_NAMED 1887-10-01 03:00:00 NR 26.5104 129.463 main 515 486 __________P___ -1 26.5104 129.463 7 30 67
1887271N16133 1887 53 WP MM NOT_NAMED 1887-10-01 04:00:00 NR 26.7000 130.000 main 484 __________O___ -1 26.7000 130.000 7 31 68

Digital Typhoon Data and Search

About IBTrACS Database

This database is a web-friendly format of International Best Track Archive for Climate Stewardship (IBTrACS), a global best track data archive curated by NOAA dating back to 1842.

Updated: 2021-10-25